Accueil
METAR-TAF:

METAR-TAF

Aéroports :

Aéroport de Kameshli

Al Qamishli, Syrie

latitude: 37-03N, longitude: 041-13E, altitude: 455 m

Observation

Le bulletin a été fait il y a 17 minutes, à 19:00 UTC
Vent 15 kt de nord
Température 12°C
Humidité 71%
Pression 1009 hPa
Visibilité: 6000 m
Quelques nuages à une hauteur de 1300 ft
Nuages épars à une hauteur de 2600 ft
Ciel couvert à une hauteur de 10000 ft

METAR: OSKL 191900Z 36015KT 6000 FEW013 CB SCT026 OVC100 12/07 Q1009

Heure: 21:17 (19:17 UTC)


TAF: absent

Observations et prévisions météorologiques de plus de 4000 aéroports (messages METAR et TAF).

Les stations disponibles sont représentées par des disques jaunes et rouges sur la carte.

Passer la souris dessus pour voir le nom de la station.

Cliquer dessus pour voir les observations et prévisions météorologiques.

Pour changer de carte: cliquez sur les boutons verts avec une croix noire pour zoomer, sur le bouton vert avec un tiret pour effectuer un zoom arrière, ou sur les flèches vertes pour les cartes adjacentes.


METAR-TAF: